sensor_id;sensor_type;location;lat;lon;timestamp;P1;durP1;ratioP1;P2;durP2;ratioP2
7239;SDS011;3661;53.288;10.458;2023-05-10T00:01:28;1699.93;;;999.90;;
7239;SDS011;3661;53.288;10.458;2023-05-10T00:04:00;1716.40;;;999.90;;
7239;SDS011;3661;53.288;10.458;2023-05-10T00:06:33;1703.65;;;999.90;;
7239;SDS011;3661;53.288;10.458;2023-05-10T00:09:05;1715.10;;;999.90;;
7239;SDS011;3661;53.288;10.458;2023-05-10T00:11:38;1711.93;;;999.90;;
7239;SDS011;3661;53.288;10.458;2023-05-10T00:14:10;1714.65;;;999.90;;
7239;SDS011;3661;53.288;10.458;2023-05-10T00:16:44;1700.45;;;999.90;;
7239;SDS011;3661;53.288;10.458;2023-05-10T00:19:16;1712.13;;;999.90;;
7239;SDS011;3661;53.288;10.458;2023-05-10T00:21:49;1709.25;;;999.90;;
7239;SDS011;3661;53.288;10.458;2023-05-10T00:24:23;1709.70;;;999.90;;
7239;SDS011;3661;53.288;10.458;2023-05-10T00:26:55;1700.55;;;999.90;;
7239;SDS011;3661;53.288;10.458;2023-05-10T00:29:27;1684.68;;;999.90;;
7239;SDS011;3661;53.288;10.458;2023-05-10T00:32:05;1690.85;;;999.90;;
7239;SDS011;3661;53.288;10.458;2023-05-10T00:34:38;1699.63;;;999.90;;
7239;SDS011;3661;53.288;10.458;2023-05-10T00:37:10;1705.00;;;999.90;;
7239;SDS011;3661;53.288;10.458;2023-05-10T00:39:42;1679.00;;;999.90;;
7239;SDS011;3661;53.288;10.458;2023-05-10T00:42:15;1690.25;;;999.90;;
7239;SDS011;3661;53.288;10.458;2023-05-10T00:44:47;1679.40;;;999.90;;
7239;SDS011;3661;53.288;10.458;2023-05-10T00:47:20;1670.80;;;999.90;;
7239;SDS011;3661;53.288;10.458;2023-05-10T00:49:53;1665.60;;;999.90;;
7239;SDS011;3661;53.288;10.458;2023-05-10T00:52:26;1665.45;;;999.90;;
7239;SDS011;3661;53.288;10.458;2023-05-10T00:54:58;1683.50;;;999.90;;
7239;SDS011;3661;53.288;10.458;2023-05-10T00:57:33;1676.82;;;999.90;;
7239;SDS011;3661;53.288;10.458;2023-05-10T01:00:05;1687.15;;;999.90;;
7239;SDS011;3661;53.288;10.458;2023-05-10T01:02:41;1688.20;;;999.90;;
7239;SDS011;3661;53.288;10.458;2023-05-10T01:05:13;1681.87;;;999.90;;
7239;SDS011;3661;53.288;10.458;2023-05-10T01:07:48;1677.88;;;999.90;;
7239;SDS011;3661;53.288;10.458;2023-05-10T01:10:21;1670.22;;;999.90;;
7239;SDS011;3661;53.288;10.458;2023-05-10T01:12:55;1640.72;;;999.90;;
7239;SDS011;3661;53.288;10.458;2023-05-10T01:15:28;1667.63;;;999.90;;
7239;SDS011;3661;53.288;10.458;2023-05-10T01:18:04;1642.97;;;999.90;;
7239;SDS011;3661;53.288;10.458;2023-05-10T01:20:39;1662.45;;;999.90;;
7239;SDS011;3661;53.288;10.458;2023-05-10T01:23:29;1657.57;;;999.90;;
7239;SDS011;3661;53.288;10.458;2023-05-10T01:26:13;1649.18;;;999.90;;
7239;SDS011;3661;53.288;10.458;2023-05-10T01:29:24;1652.45;;;999.90;;
7239;SDS011;3661;53.288;10.458;2023-05-10T01:32:31;1654.40;;;999.90;;
7239;SDS011;3661;53.288;10.458;2023-05-10T01:35:14;1626.57;;;999.90;;
7239;SDS011;3661;53.288;10.458;2023-05-10T01:37:58;1642.60;;;999.90;;
7239;SDS011;3661;53.288;10.458;2023-05-10T01:40:42;1630.70;;;999.90;;
7239;SDS011;3661;53.288;10.458;2023-05-10T01:43:22;1646.60;;;999.90;;
7239;SDS011;3661;53.288;10.458;2023-05-10T01:45:59;1626.45;;;999.90;;
7239;SDS011;3661;53.288;10.458;2023-05-10T01:48:45;1634.63;;;999.90;;
7239;SDS011;3661;53.288;10.458;2023-05-10T01:51:21;1624.97;;;999.90;;
7239;SDS011;3661;53.288;10.458;2023-05-10T01:53:57;1625.00;;;999.90;;
7239;SDS011;3661;53.288;10.458;2023-05-10T01:56:33;1632.93;;;999.90;;
7239;SDS011;3661;53.288;10.458;2023-05-10T01:59:13;1651.50;;;999.90;;
7239;SDS011;3661;53.288;10.458;2023-05-10T02:01:49;1627.97;;;999.90;;
7239;SDS011;3661;53.288;10.458;2023-05-10T02:04:25;1627.35;;;999.90;;
7239;SDS011;3661;53.288;10.458;2023-05-10T02:06:59;1625.80;;;999.90;;
7239;SDS011;3661;53.288;10.458;2023-05-10T02:09:33;1624.75;;;999.90;;
7239;SDS011;3661;53.288;10.458;2023-05-10T02:12:08;1619.37;;;999.90;;
7239;SDS011;3661;53.288;10.458;2023-05-10T02:14:41;1614.80;;;999.90;;
7239;SDS011;3661;53.288;10.458;2023-05-10T02:17:14;1637.03;;;999.90;;
7239;SDS011;3661;53.288;10.458;2023-05-10T02:19:53;1613.72;;;999.90;;
7239;SDS011;3661;53.288;10.458;2023-05-10T02:22:26;1637.68;;;999.90;;
7239;SDS011;3661;53.288;10.458;2023-05-10T02:25:03;1622.95;;;999.90;;
7239;SDS011;3661;53.288;10.458;2023-05-10T02:27:37;1602.67;;;999.90;;
7239;SDS011;3661;53.288;10.458;2023-05-10T02:30:14;1601.80;;;999.90;;
7239;SDS011;3661;53.288;10.458;2023-05-10T02:32:46;1627.50;;;999.90;;
7239;SDS011;3661;53.288;10.458;2023-05-10T02:35:22;1619.07;;;999.90;;
7239;SDS011;3661;53.288;10.458;2023-05-10T02:37:54;1612.47;;;999.90;;
7239;SDS011;3661;53.288;10.458;2023-05-10T02:40:29;1616.45;;;999.90;;
7239;SDS011;3661;53.288;10.458;2023-05-10T02:43:04;1593.30;;;999.90;;
7239;SDS011;3661;53.288;10.458;2023-05-10T02:45:40;1597.85;;;999.90;;
7239;SDS011;3661;53.288;10.458;2023-05-10T02:48:14;1599.82;;;999.90;;
7239;SDS011;3661;53.288;10.458;2023-05-10T02:50:50;1596.43;;;999.90;;
7239;SDS011;3661;53.288;10.458;2023-05-10T02:53:28;1599.80;;;999.90;;
7239;SDS011;3661;53.288;10.458;2023-05-10T02:56:05;1594.90;;;999.90;;
7239;SDS011;3661;53.288;10.458;2023-05-10T02:58:44;1586.90;;;999.90;;
7239;SDS011;3661;53.288;10.458;2023-05-10T03:01:16;1575.93;;;999.90;;
7239;SDS011;3661;53.288;10.458;2023-05-10T03:03:48;1558.95;;;999.90;;
7239;SDS011;3661;53.288;10.458;2023-05-10T03:06:22;1567.22;;;999.90;;
7239;SDS011;3661;53.288;10.458;2023-05-10T03:08:54;1565.80;;;999.90;;
7239;SDS011;3661;53.288;10.458;2023-05-10T03:11:32;1575.82;;;999.90;;
7239;SDS011;3661;53.288;10.458;2023-05-10T03:14:21;1560.88;;;999.90;;
7239;SDS011;3661;53.288;10.458;2023-05-10T03:17:04;1579.47;;;999.90;;
7239;SDS011;3661;53.288;10.458;2023-05-10T03:19:40;1558.53;;;999.90;;
7239;SDS011;3661;53.288;10.458;2023-05-10T03:22:21;1575.55;;;999.90;;
7239;SDS011;3661;53.288;10.458;2023-05-10T03:24:57;1572.43;;;999.90;;
7239;SDS011;3661;53.288;10.458;2023-05-10T03:27:31;1575.13;;;999.90;;
7239;SDS011;3661;53.288;10.458;2023-05-10T03:30:05;1561.30;;;999.90;;
7239;SDS011;3661;53.288;10.458;2023-05-10T03:32:41;1563.13;;;999.90;;
7239;SDS011;3661;53.288;10.458;2023-05-10T03:35:13;1556.63;;;999.90;;
7239;SDS011;3661;53.288;10.458;2023-05-10T03:37:47;1562.85;;;999.90;;
7239;SDS011;3661;53.288;10.458;2023-05-10T03:40:19;1537.68;;;999.90;;
7239;SDS011;3661;53.288;10.458;2023-05-10T03:42:51;1553.72;;;999.90;;
7239;SDS011;3661;53.288;10.458;2023-05-10T03:45:24;1555.07;;;999.90;;
7239;SDS011;3661;53.288;10.458;2023-05-10T03:47:57;1540.73;;;999.90;;
7239;SDS011;3661;53.288;10.458;2023-05-10T03:50:29;1545.63;;;999.90;;
7239;SDS011;3661;53.288;10.458;2023-05-10T03:53:03;1555.45;;;999.90;;
7239;SDS011;3661;53.288;10.458;2023-05-10T03:55:35;1533.20;;;999.90;;
7239;SDS011;3661;53.288;10.458;2023-05-10T03:58:10;1538.45;;;999.90;;
7239;SDS011;3661;53.288;10.458;2023-05-10T04:00:43;1534.93;;;999.90;;
7239;SDS011;3661;53.288;10.458;2023-05-10T04:03:15;1528.97;;;999.90;;
7239;SDS011;3661;53.288;10.458;2023-05-10T04:05:47;1537.45;;;999.90;;
7239;SDS011;3661;53.288;10.458;2023-05-10T04:08:21;1511.80;;;999.90;;
7239;SDS011;3661;53.288;10.458;2023-05-10T04:10:53;1515.93;;;999.90;;
7239;SDS011;3661;53.288;10.458;2023-05-10T04:13:26;1516.87;;;999.90;;
7239;SDS011;3661;53.288;10.458;2023-05-10T04:15:58;1517.28;;;999.90;;
7239;SDS011;3661;53.288;10.458;2023-05-10T04:18:31;1538.05;;;999.90;;
7239;SDS011;3661;53.288;10.458;2023-05-10T04:21:04;1535.80;;;999.90;;
7239;SDS011;3661;53.288;10.458;2023-05-10T04:23:40;1528.93;;;999.90;;
7239;SDS011;3661;53.288;10.458;2023-05-10T04:26:12;1540.60;;;999.90;;
7239;SDS011;3661;53.288;10.458;2023-05-10T04:28:45;1529.57;;;999.90;;
7239;SDS011;3661;53.288;10.458;2023-05-10T04:31:17;1535.82;;;999.90;;
7239;SDS011;3661;53.288;10.458;2023-05-10T04:33:50;1553.13;;;999.90;;
7239;SDS011;3661;53.288;10.458;2023-05-10T04:36:23;1545.40;;;999.90;;
7239;SDS011;3661;53.288;10.458;2023-05-10T04:38:59;1554.60;;;999.90;;
7239;SDS011;3661;53.288;10.458;2023-05-10T04:41:32;1542.32;;;999.90;;
7239;SDS011;3661;53.288;10.458;2023-05-10T04:44:05;1552.60;;;999.90;;
7239;SDS011;3661;53.288;10.458;2023-05-10T04:46:37;1569.45;;;999.90;;
7239;SDS011;3661;53.288;10.458;2023-05-10T04:49:09;1546.13;;;999.90;;
7239;SDS011;3661;53.288;10.458;2023-05-10T04:51:43;1554.78;;;999.90;;
7239;SDS011;3661;53.288;10.458;2023-05-10T04:54:16;1552.47;;;999.90;;
7239;SDS011;3661;53.288;10.458;2023-05-10T04:56:49;1544.97;;;999.90;;
7239;SDS011;3661;53.288;10.458;2023-05-10T04:59:21;1553.85;;;999.90;;
7239;SDS011;3661;53.288;10.458;2023-05-10T05:01:53;1572.43;;;999.90;;
7239;SDS011;3661;53.288;10.458;2023-05-10T05:04:25;1574.25;;;999.90;;
7239;SDS011;3661;53.288;10.458;2023-05-10T05:06:57;1561.55;;;999.90;;
7239;SDS011;3661;53.288;10.458;2023-05-10T05:09:30;1568.47;;;999.90;;
7239;SDS011;3661;53.288;10.458;2023-05-10T05:12:03;1570.10;;;999.90;;
7239;SDS011;3661;53.288;10.458;2023-05-10T05:14:35;1561.05;;;999.90;;
7239;SDS011;3661;53.288;10.458;2023-05-10T05:17:07;1589.40;;;999.90;;
7239;SDS011;3661;53.288;10.458;2023-05-10T05:19:39;1595.57;;;999.90;;
7239;SDS011;3661;53.288;10.458;2023-05-10T05:22:11;1588.65;;;999.90;;
7239;SDS011;3661;53.288;10.458;2023-05-10T05:24:46;1596.55;;;999.90;;
7239;SDS011;3661;53.288;10.458;2023-05-10T05:27:18;1612.80;;;999.90;;
7239;SDS011;3661;53.288;10.458;2023-05-10T05:29:52;1609.25;;;999.90;;
7239;SDS011;3661;53.288;10.458;2023-05-10T05:32:24;1612.67;;;999.90;;
7239;SDS011;3661;53.288;10.458;2023-05-10T05:34:57;1628.03;;;999.90;;
7239;SDS011;3661;53.288;10.458;2023-05-10T05:37:29;1627.60;;;999.90;;
7239;SDS011;3661;53.288;10.458;2023-05-10T05:40:03;1629.50;;;999.90;;
7239;SDS011;3661;53.288;10.458;2023-05-10T05:42:36;1659.35;;;999.90;;
7239;SDS011;3661;53.288;10.458;2023-05-10T05:45:08;1642.32;;;999.90;;
7239;SDS011;3661;53.288;10.458;2023-05-10T05:47:43;1630.40;;;999.90;;
7239;SDS011;3661;53.288;10.458;2023-05-10T05:50:15;1648.85;;;999.90;;
7239;SDS011;3661;53.288;10.458;2023-05-10T05:52:50;1647.38;;;999.90;;
7239;SDS011;3661;53.288;10.458;2023-05-10T05:55:23;1654.63;;;999.90;;
7239;SDS011;3661;53.288;10.458;2023-05-10T05:57:56;1691.05;;;999.90;;
7239;SDS011;3661;53.288;10.458;2023-05-10T06:00:28;1677.70;;;999.90;;
7239;SDS011;3661;53.288;10.458;2023-05-10T06:03:00;1693.53;;;999.90;;
7239;SDS011;3661;53.288;10.458;2023-05-10T06:05:32;1687.70;;;999.90;;
7239;SDS011;3661;53.288;10.458;2023-05-10T06:08:04;1700.60;;;999.90;;
7239;SDS011;3661;53.288;10.458;2023-05-10T06:10:38;1705.00;;;999.90;;
7239;SDS011;3661;53.288;10.458;2023-05-10T06:13:10;1710.67;;;999.90;;
7239;SDS011;3661;53.288;10.458;2023-05-10T06:15:42;1712.63;;;999.90;;
7239;SDS011;3661;53.288;10.458;2023-05-10T06:18:14;1699.68;;;999.90;;
7239;SDS011;3661;53.288;10.458;2023-05-10T06:20:46;1711.65;;;999.90;;
7239;SDS011;3661;53.288;10.458;2023-05-10T06:23:18;1732.10;;;999.90;;
7239;SDS011;3661;53.288;10.458;2023-05-10T06:25:52;1729.07;;;999.90;;
7239;SDS011;3661;53.288;10.458;2023-05-10T06:28:24;1706.78;;;999.90;;
7239;SDS011;3661;53.288;10.458;2023-05-10T06:30:56;1733.60;;;999.90;;
7239;SDS011;3661;53.288;10.458;2023-05-10T06:33:28;1723.03;;;999.90;;
7239;SDS011;3661;53.288;10.458;2023-05-10T06:36:00;1726.38;;;999.90;;
7239;SDS011;3661;53.288;10.458;2023-05-10T06:38:32;1726.47;;;999.90;;
7239;SDS011;3661;53.288;10.458;2023-05-10T06:41:05;1753.82;;;999.90;;
7239;SDS011;3661;53.288;10.458;2023-05-10T06:43:38;1744.47;;;999.90;;
7239;SDS011;3661;53.288;10.458;2023-05-10T06:46:11;1730.63;;;999.90;;
7239;SDS011;3661;53.288;10.458;2023-05-10T06:48:43;1751.55;;;999.90;;
7239;SDS011;3661;53.288;10.458;2023-05-10T06:51:15;1758.93;;;999.90;;
7239;SDS011;3661;53.288;10.458;2023-05-10T06:53:47;1759.60;;;999.90;;
7239;SDS011;3661;53.288;10.458;2023-05-10T06:56:21;1758.10;;;999.90;;
7239;SDS011;3661;53.288;10.458;2023-05-10T06:58:53;1775.72;;;999.90;;
7239;SDS011;3661;53.288;10.458;2023-05-10T07:01:25;1756.03;;;999.90;;
7239;SDS011;3661;53.288;10.458;2023-05-10T07:03:57;1766.03;;;999.90;;
7239;SDS011;3661;53.288;10.458;2023-05-10T07:06:29;1768.63;;;999.90;;
7239;SDS011;3661;53.288;10.458;2023-05-10T07:09:02;1777.75;;;999.90;;
7239;SDS011;3661;53.288;10.458;2023-05-10T07:11:35;1767.75;;;999.90;;
7239;SDS011;3661;53.288;10.458;2023-05-10T07:14:10;1787.68;;;999.90;;
7239;SDS011;3661;53.288;10.458;2023-05-10T07:16:42;1786.47;;;999.90;;
7239;SDS011;3661;53.288;10.458;2023-05-10T07:19:14;1791.72;;;999.90;;
7239;SDS011;3661;53.288;10.458;2023-05-10T07:21:46;1786.30;;;999.90;;
7239;SDS011;3661;53.288;10.458;2023-05-10T07:24:19;1775.82;;;999.90;;
7239;SDS011;3661;53.288;10.458;2023-05-10T07:26:52;1785.95;;;999.90;;
7239;SDS011;3661;53.288;10.458;2023-05-10T07:29:24;1793.13;;;999.90;;
7239;SDS011;3661;53.288;10.458;2023-05-10T07:31:56;1814.47;;;999.90;;
7239;SDS011;3661;53.288;10.458;2023-05-10T07:34:28;1814.38;;;999.90;;
7239;SDS011;3661;53.288;10.458;2023-05-10T07:37:01;1819.75;;;999.90;;
7239;SDS011;3661;53.288;10.458;2023-05-10T07:39:34;1816.97;;;999.90;;
7239;SDS011;3661;53.288;10.458;2023-05-10T07:42:07;1810.72;;;999.90;;
7239;SDS011;3661;53.288;10.458;2023-05-10T07:44:39;1823.55;;;999.90;;
7239;SDS011;3661;53.288;10.458;2023-05-10T07:47:12;1847.03;;;999.90;;
7239;SDS011;3661;53.288;10.458;2023-05-10T07:49:44;1827.78;;;999.90;;
7239;SDS011;3661;53.288;10.458;2023-05-10T07:52:16;1838.07;;;999.90;;
7239;SDS011;3661;53.288;10.458;2023-05-10T07:54:48;1842.43;;;999.90;;
7239;SDS011;3661;53.288;10.458;2023-05-10T07:57:21;1849.72;;;999.90;;
7239;SDS011;3661;53.288;10.458;2023-05-10T07:59:53;1848.03;;;999.90;;
7239;SDS011;3661;53.288;10.458;2023-05-10T08:02:26;1861.45;;;999.90;;
7239;SDS011;3661;53.288;10.458;2023-05-10T08:04:58;1858.03;;;999.90;;
7239;SDS011;3661;53.288;10.458;2023-05-10T08:07:30;1875.38;;;999.90;;
7239;SDS011;3661;53.288;10.458;2023-05-10T08:10:02;1881.40;;;999.90;;
7239;SDS011;3661;53.288;10.458;2023-05-10T08:12:36;1877.82;;;999.90;;
7239;SDS011;3661;53.288;10.458;2023-05-10T08:15:11;1874.05;;;999.90;;
7239;SDS011;3661;53.288;10.458;2023-05-10T08:17:43;1896.82;;;999.90;;
7239;SDS011;3661;53.288;10.458;2023-05-10T08:20:15;1891.90;;;999.90;;
7239;SDS011;3661;53.288;10.458;2023-05-10T08:22:49;1895.15;;;999.90;;
7239;SDS011;3661;53.288;10.458;2023-05-10T08:25:21;1899.03;;;999.90;;
7239;SDS011;3661;53.288;10.458;2023-05-10T08:27:54;1885.05;;;999.90;;
7239;SDS011;3661;53.288;10.458;2023-05-10T08:30:26;1918.63;;;999.90;;
7239;SDS011;3661;53.288;10.458;2023-05-10T08:32:58;1921.50;;;999.90;;
7239;SDS011;3661;53.288;10.458;2023-05-10T08:35:30;1923.97;;;999.90;;
7239;SDS011;3661;53.288;10.458;2023-05-10T08:38:03;1910.78;;;999.90;;
7239;SDS011;3661;53.288;10.458;2023-05-10T08:40:35;1919.63;;;999.90;;
7239;SDS011;3661;53.288;10.458;2023-05-10T08:43:10;1935.45;;;999.90;;
7239;SDS011;3661;53.288;10.458;2023-05-10T08:45:44;1939.67;;;999.90;;
7239;SDS011;3661;53.288;10.458;2023-05-10T08:51:31;1947.20;;;999.90;;
7239;SDS011;3661;53.288;10.458;2023-05-10T08:54:07;1953.82;;;999.90;;
7239;SDS011;3661;53.288;10.458;2023-05-10T08:56:40;1944.05;;;999.90;;
7239;SDS011;3661;53.288;10.458;2023-05-10T08:59:13;1948.55;;;999.90;;
7239;SDS011;3661;53.288;10.458;2023-05-10T09:01:46;1955.10;;;999.90;;
7239;SDS011;3661;53.288;10.458;2023-05-10T09:04:19;1945.05;;;999.90;;
7239;SDS011;3661;53.288;10.458;2023-05-10T09:06:52;1943.83;;;999.90;;
7239;SDS011;3661;53.288;10.458;2023-05-10T09:09:24;1957.20;;;999.90;;
7239;SDS011;3661;53.288;10.458;2023-05-10T09:11:57;1926.35;;;999.90;;
7239;SDS011;3661;53.288;10.458;2023-05-10T09:14:31;1934.07;;;999.90;;
7239;SDS011;3661;53.288;10.458;2023-05-10T09:17:07;1940.33;;;999.90;;
7239;SDS011;3661;53.288;10.458;2023-05-10T09:19:40;1942.83;;;999.90;;
7239;SDS011;3661;53.288;10.458;2023-05-10T09:22:12;1933.73;;;999.90;;
7239;SDS011;3661;53.288;10.458;2023-05-10T09:25:02;1921.77;;;999.90;;
7239;SDS011;3661;53.288;10.458;2023-05-10T09:27:36;1942.65;;;999.90;;
7239;SDS011;3661;53.288;10.458;2023-05-10T09:30:15;1933.20;;;999.90;;
7239;SDS011;3661;53.288;10.458;2023-05-10T09:32:48;1917.75;;;999.90;;
7239;SDS011;3661;53.288;10.458;2023-05-10T09:35:21;1914.47;;;999.90;;
7239;SDS011;3661;53.288;10.458;2023-05-10T09:37:55;1927.88;;;999.90;;
7239;SDS011;3661;53.288;10.458;2023-05-10T09:40:29;1938.30;;;999.90;;
7239;SDS011;3661;53.288;10.458;2023-05-10T09:43:02;1924.30;;;999.90;;
7239;SDS011;3661;53.288;10.458;2023-05-10T09:45:41;1944.93;;;999.90;;
7239;SDS011;3661;53.288;10.458;2023-05-10T09:48:13;1921.95;;;999.90;;
7239;SDS011;3661;53.288;10.458;2023-05-10T09:50:45;1926.88;;;999.90;;
7239;SDS011;3661;53.288;10.458;2023-05-10T09:53:28;1939.27;;;999.90;;
7239;SDS011;3661;53.288;10.458;2023-05-10T09:56:00;1935.57;;;999.90;;
7239;SDS011;3661;53.288;10.458;2023-05-10T09:58:35;1914.88;;;999.90;;
7239;SDS011;3661;53.288;10.458;2023-05-10T10:01:11;1940.75;;;999.90;;
7239;SDS011;3661;53.288;10.458;2023-05-10T10:03:44;1929.97;;;999.90;;
7239;SDS011;3661;53.288;10.458;2023-05-10T10:06:18;1925.18;;;999.90;;
7239;SDS011;3661;53.288;10.458;2023-05-10T10:08:50;1919.28;;;999.90;;
7239;SDS011;3661;53.288;10.458;2023-05-10T10:11:24;1927.63;;;999.90;;
7239;SDS011;3661;53.288;10.458;2023-05-10T10:13:56;1920.03;;;999.90;;
7239;SDS011;3661;53.288;10.458;2023-05-10T10:16:30;1937.27;;;999.90;;
7239;SDS011;3661;53.288;10.458;2023-05-10T10:19:02;1930.57;;;999.90;;
7239;SDS011;3661;53.288;10.458;2023-05-10T10:21:34;1936.25;;;999.90;;
7239;SDS011;3661;53.288;10.458;2023-05-10T10:24:07;1930.97;;;999.90;;
7239;SDS011;3661;53.288;10.458;2023-05-10T10:26:39;1931.45;;;999.90;;
7239;SDS011;3661;53.288;10.458;2023-05-10T10:29:17;1936.88;;;999.90;;
7239;SDS011;3661;53.288;10.458;2023-05-10T10:31:57;1926.28;;;999.90;;
7239;SDS011;3661;53.288;10.458;2023-05-10T10:34:39;1918.40;;;999.90;;
7239;SDS011;3661;53.288;10.458;2023-05-10T10:37:12;1921.97;;;999.90;;
7239;SDS011;3661;53.288;10.458;2023-05-10T10:39:44;1922.93;;;999.90;;
7239;SDS011;3661;53.288;10.458;2023-05-10T10:45:16;1908.20;;;999.90;;
7239;SDS011;3661;53.288;10.458;2023-05-10T10:47:50;1905.75;;;999.90;;
7239;SDS011;3661;53.288;10.458;2023-05-10T10:50:55;1896.40;;;999.90;;
7239;SDS011;3661;53.288;10.458;2023-05-10T10:53:28;1914.47;;;999.90;;
7239;SDS011;3661;53.288;10.458;2023-05-10T10:56:05;1892.13;;;999.90;;
7239;SDS011;3661;53.288;10.458;2023-05-10T10:58:42;1894.75;;;999.90;;
7239;SDS011;3661;53.288;10.458;2023-05-10T11:01:21;1902.90;;;999.90;;
7239;SDS011;3661;53.288;10.458;2023-05-10T11:06:51;1893.30;;;999.90;;
7239;SDS011;3661;53.288;10.458;2023-05-10T11:09:47;1889.07;;;999.90;;
7239;SDS011;3661;53.288;10.458;2023-05-10T11:12:20;1879.97;;;999.90;;
7239;SDS011;3661;53.288;10.458;2023-05-10T11:14:52;1875.13;;;999.90;;
7239;SDS011;3661;53.288;10.458;2023-05-10T11:17:32;1876.30;;;999.90;;
7239;SDS011;3661;53.288;10.458;2023-05-10T11:20:08;1848.13;;;999.90;;
7239;SDS011;3661;53.288;10.458;2023-05-10T11:22:50;1838.38;;;999.90;;
7239;SDS011;3661;53.288;10.458;2023-05-10T11:25:26;1860.07;;;999.90;;
7239;SDS011;3661;53.288;10.458;2023-05-10T11:27:58;1853.43;;;999.90;;
7239;SDS011;3661;53.288;10.458;2023-05-10T11:30:35;1841.57;;;999.90;;
7239;SDS011;3661;53.288;10.458;2023-05-10T11:33:08;1840.95;;;999.90;;
7239;SDS011;3661;53.288;10.458;2023-05-10T11:35:41;1837.75;;;999.90;;
7239;SDS011;3661;53.288;10.458;2023-05-10T11:38:14;1845.30;;;999.90;;
7239;SDS011;3661;53.288;10.458;2023-05-10T11:40:46;1840.20;;;999.90;;
7239;SDS011;3661;53.288;10.458;2023-05-10T11:43:18;1852.22;;;999.90;;
7239;SDS011;3661;53.288;10.458;2023-05-10T11:45:50;1845.05;;;999.90;;
7239;SDS011;3661;53.288;10.458;2023-05-10T11:48:22;1858.28;;;999.90;;
7239;SDS011;3661;53.288;10.458;2023-05-10T11:50:56;1835.13;;;999.90;;
7239;SDS011;3661;53.288;10.458;2023-05-10T11:53:29;1820.65;;;999.90;;
7239;SDS011;3661;53.288;10.458;2023-05-10T11:56:02;1834.57;;;999.90;;
7239;SDS011;3661;53.288;10.458;2023-05-10T11:58:35;1816.50;;;999.90;;
7239;SDS011;3661;53.288;10.458;2023-05-10T12:01:09;1827.50;;;999.90;;
7239;SDS011;3661;53.288;10.458;2023-05-10T12:03:41;1816.63;;;999.90;;
7239;SDS011;3661;53.288;10.458;2023-05-10T12:06:15;1836.70;;;999.90;;
7239;SDS011;3661;53.288;10.458;2023-05-10T12:08:47;1824.70;;;999.90;;
7239;SDS011;3661;53.288;10.458;2023-05-10T12:11:24;1835.13;;;999.90;;
7239;SDS011;3661;53.288;10.458;2023-05-10T12:13:57;1840.43;;;999.90;;
7239;SDS011;3661;53.288;10.458;2023-05-10T12:16:29;1842.83;;;999.90;;
7239;SDS011;3661;53.288;10.458;2023-05-10T12:19:01;1832.18;;;999.90;;
7239;SDS011;3661;53.288;10.458;2023-05-10T12:21:35;1848.22;;;999.90;;
7239;SDS011;3661;53.288;10.458;2023-05-10T12:24:08;1820.55;;;999.90;;
7239;SDS011;3661;53.288;10.458;2023-05-10T12:26:40;1842.28;;;999.90;;
7239;SDS011;3661;53.288;10.458;2023-05-10T12:29:14;1844.70;;;999.90;;
7239;SDS011;3661;53.288;10.458;2023-05-10T12:31:53;1850.18;;;999.90;;
7239;SDS011;3661;53.288;10.458;2023-05-10T12:34:27;1845.68;;;999.90;;
7239;SDS011;3661;53.288;10.458;2023-05-10T12:37:03;1852.80;;;999.90;;
7239;SDS011;3661;53.288;10.458;2023-05-10T12:39:39;1851.28;;;999.90;;
7239;SDS011;3661;53.288;10.458;2023-05-10T12:42:12;1864.53;;;999.90;;
7239;SDS011;3661;53.288;10.458;2023-05-10T12:44:44;1859.03;;;999.90;;
7239;SDS011;3661;53.288;10.458;2023-05-10T12:47:16;1865.70;;;999.90;;
7239;SDS011;3661;53.288;10.458;2023-05-10T12:49:48;1867.82;;;999.90;;
7239;SDS011;3661;53.288;10.458;2023-05-10T12:52:22;1843.20;;;999.90;;
7239;SDS011;3661;53.288;10.458;2023-05-10T12:54:54;1856.65;;;999.90;;
7239;SDS011;3661;53.288;10.458;2023-05-10T12:57:26;1880.22;;;999.90;;
7239;SDS011;3661;53.288;10.458;2023-05-10T12:59:59;1860.45;;;999.90;;
7239;SDS011;3661;53.288;10.458;2023-05-10T13:02:31;1876.05;;;999.90;;
7239;SDS011;3661;53.288;10.458;2023-05-10T13:05:03;1845.60;;;999.90;;
7239;SDS011;3661;53.288;10.458;2023-05-10T13:07:37;1846.45;;;999.90;;
7239;SDS011;3661;53.288;10.458;2023-05-10T13:10:09;1851.85;;;999.90;;
7239;SDS011;3661;53.288;10.458;2023-05-10T13:12:42;1851.78;;;999.90;;
7239;SDS011;3661;53.288;10.458;2023-05-10T13:15:14;1876.00;;;999.90;;
7239;SDS011;3661;53.288;10.458;2023-05-10T13:17:46;1867.72;;;999.90;;
7239;SDS011;3661;53.288;10.458;2023-05-10T13:20:18;1888.82;;;999.90;;
7239;SDS011;3661;53.288;10.458;2023-05-10T13:22:52;1865.05;;;999.90;;
7239;SDS011;3661;53.288;10.458;2023-05-10T13:25:24;1880.05;;;999.90;;
7239;SDS011;3661;53.288;10.458;2023-05-10T13:27:56;1877.65;;;999.90;;
7239;SDS011;3661;53.288;10.458;2023-05-10T13:30:28;1857.82;;;999.90;;
7239;SDS011;3661;53.288;10.458;2023-05-10T13:33:01;1886.05;;;999.90;;
7239;SDS011;3661;53.288;10.458;2023-05-10T13:35:33;1880.57;;;999.90;;
7239;SDS011;3661;53.288;10.458;2023-05-10T13:38:06;1890.97;;;999.90;;
7239;SDS011;3661;53.288;10.458;2023-05-10T13:40:38;1885.95;;;999.90;;
7239;SDS011;3661;53.288;10.458;2023-05-10T13:43:10;1880.47;;;999.90;;
7239;SDS011;3661;53.288;10.458;2023-05-10T13:45:42;1892.60;;;999.90;;
7239;SDS011;3661;53.288;10.458;2023-05-10T13:48:14;1891.90;;;999.90;;
7239;SDS011;3661;53.288;10.458;2023-05-10T13:50:47;1900.22;;;999.90;;
7239;SDS011;3661;53.288;10.458;2023-05-10T13:53:20;1895.03;;;999.90;;
7239;SDS011;3661;53.288;10.458;2023-05-10T13:55:52;1907.28;;;999.90;;
7239;SDS011;3661;53.288;10.458;2023-05-10T13:58:24;1893.53;;;999.90;;
7239;SDS011;3661;53.288;10.458;2023-05-10T14:00:56;1902.28;;;999.90;;
7239;SDS011;3661;53.288;10.458;2023-05-10T14:03:28;1904.25;;;999.90;;
7239;SDS011;3661;53.288;10.458;2023-05-10T14:06:00;1905.38;;;999.90;;
7239;SDS011;3661;53.288;10.458;2023-05-10T14:08:34;1915.22;;;999.90;;
7239;SDS011;3661;53.288;10.458;2023-05-10T14:11:06;1923.78;;;999.90;;
7239;SDS011;3661;53.288;10.458;2023-05-10T14:13:39;1919.75;;;999.90;;
7239;SDS011;3661;53.288;10.458;2023-05-10T14:16:11;1930.70;;;999.90;;
7239;SDS011;3661;53.288;10.458;2023-05-10T14:18:44;1932.70;;;999.90;;
7239;SDS011;3661;53.288;10.458;2023-05-10T14:21:19;1931.60;;;999.90;;
7239;SDS011;3661;53.288;10.458;2023-05-10T14:23:52;1930.00;;;999.90;;
7239;SDS011;3661;53.288;10.458;2023-05-10T14:26:24;1915.35;;;999.90;;
7239;SDS011;3661;53.288;10.458;2023-05-10T14:28:56;1940.35;;;999.90;;
7239;SDS011;3661;53.288;10.458;2023-05-10T14:31:28;1958.63;;;999.90;;
7239;SDS011;3661;53.288;10.458;2023-05-10T14:34:01;1942.72;;;999.90;;
7239;SDS011;3661;53.288;10.458;2023-05-10T14:36:33;1954.45;;;999.90;;
7239;SDS011;3661;53.288;10.458;2023-05-10T14:39:06;1955.93;;;999.90;;
7239;SDS011;3661;53.288;10.458;2023-05-10T14:41:40;1972.37;;;999.90;;
7239;SDS011;3661;53.288;10.458;2023-05-10T14:44:15;1969.75;;;999.90;;